createdAt,value
2023-05-18T00:01:15.502Z,9.67
2023-05-18T00:03:43.629Z,9.30
2023-05-18T00:06:14.014Z,9.34
2023-05-18T00:08:41.953Z,9.25
2023-05-18T00:11:09.919Z,9.31
2023-05-18T00:13:37.859Z,9.04
2023-05-18T00:16:05.958Z,9.26
2023-05-18T00:18:34.405Z,9.03
2023-05-18T00:21:02.735Z,8.94
2023-05-18T00:23:33.108Z,8.76
2023-05-18T00:26:02.334Z,8.75
2023-05-18T00:28:33.181Z,8.96
2023-05-18T00:31:01.520Z,8.97
2023-05-18T00:33:29.448Z,9.04
2023-05-18T00:35:57.964Z,9.01
2023-05-18T00:38:26.004Z,9.09
2023-05-18T00:40:55.482Z,8.96
2023-05-18T00:43:23.611Z,8.92
2023-05-18T00:45:51.521Z,8.73
2023-05-18T00:48:19.481Z,8.89
2023-05-18T00:50:47.705Z,8.95
2023-05-18T00:53:15.858Z,8.97
2023-05-18T00:55:44.073Z,8.91
2023-05-18T00:58:14.235Z,8.84
2023-05-18T01:00:42.279Z,8.97
2023-05-18T01:03:12.038Z,8.59
2023-05-18T01:05:40.256Z,8.50
2023-05-18T01:08:08.755Z,8.59
2023-05-18T01:10:41.955Z,8.46
2023-05-18T01:13:19.446Z,8.53
2023-05-18T01:15:53.427Z,8.60
2023-05-18T01:18:30.710Z,8.57
2023-05-18T01:21:01.294Z,8.56
2023-05-18T01:24:04.996Z,8.56
2023-05-18T01:26:38.131Z,8.51
2023-05-18T01:29:10.151Z,8.47
2023-05-18T01:31:38.920Z,8.56
2023-05-18T01:34:07.001Z,8.56
2023-05-18T01:36:34.943Z,8.39
2023-05-18T01:39:03.653Z,8.16
2023-05-18T01:41:36.441Z,8.21
2023-05-18T01:44:13.347Z,7.89
2023-05-18T01:46:53.773Z,7.96
2023-05-18T01:49:33.616Z,8.01
2023-05-18T01:52:05.742Z,7.99
2023-05-18T01:54:37.387Z,7.82
2023-05-18T01:57:10.525Z,7.90
2023-05-18T01:59:39.616Z,7.91
2023-05-18T02:02:07.913Z,7.97
2023-05-18T02:04:37.345Z,7.96
2023-05-18T02:07:05.744Z,7.83
2023-05-18T02:09:33.669Z,7.84
2023-05-18T02:12:02.589Z,7.83
2023-05-18T02:14:32.390Z,7.86
2023-05-18T02:17:01.073Z,7.86
2023-05-18T02:19:31.106Z,7.84
2023-05-18T02:21:59.128Z,8.07
2023-05-18T02:24:27.209Z,7.75
2023-05-18T02:26:55.086Z,7.64
2023-05-18T02:29:23.074Z,7.87
2023-05-18T02:31:52.480Z,7.55
2023-05-18T02:34:22.002Z,7.37
2023-05-18T02:36:49.941Z,7.25
2023-05-18T02:39:18.753Z,7.31
2023-05-18T02:41:46.604Z,7.46
2023-05-18T02:44:14.479Z,7.51
2023-05-18T02:46:43.378Z,7.27
2023-05-18T02:49:12.712Z,7.51
2023-05-18T02:51:41.334Z,7.57
2023-05-18T02:54:09.649Z,7.43
2023-05-18T02:56:41.563Z,7.45
2023-05-18T02:59:21.785Z,7.39
2023-05-18T03:01:50.036Z,7.37
2023-05-18T03:04:19.987Z,7.27
2023-05-18T03:06:52.998Z,7.31
2023-05-18T03:09:22.357Z,7.31
2023-05-18T03:11:53.528Z,7.04
2023-05-18T03:14:21.665Z,6.85
2023-05-18T03:16:53.707Z,7.15
2023-05-18T03:19:24.389Z,7.01
2023-05-18T03:21:52.296Z,6.98
2023-05-18T03:24:20.356Z,6.95
2023-05-18T03:26:50.189Z,6.77
2023-05-18T03:29:18.010Z,6.95
2023-05-18T03:31:46.059Z,6.91
2023-05-18T03:34:14.794Z,7.14
2023-05-18T03:36:47.526Z,7.01
2023-05-18T03:39:15.883Z,6.97
2023-05-18T03:41:43.659Z,7.01
2023-05-18T03:44:11.517Z,7.11
2023-05-18T03:46:39.539Z,6.99
2023-05-18T03:49:07.967Z,7.23
2023-05-18T03:51:40.386Z,7.21
2023-05-18T03:54:09.686Z,7.08
2023-05-18T03:56:37.702Z,7.32
2023-05-18T03:59:06.567Z,7.02
2023-05-18T04:01:34.921Z,7.07
2023-05-18T04:04:02.863Z,7.17
2023-05-18T04:06:31.106Z,7.10
2023-05-18T04:09:02.661Z,7.33
2023-05-18T04:11:32.084Z,7.17
2023-05-18T04:14:00.881Z,7.37
2023-05-18T04:16:29.123Z,7.43
2023-05-18T04:18:57.105Z,7.49
2023-05-18T04:21:25.110Z,7.38
2023-05-18T04:23:53.186Z,7.35
2023-05-18T04:26:22.142Z,7.56
2023-05-18T04:28:53.417Z,7.42
2023-05-18T04:31:21.855Z,7.52
2023-05-18T04:33:51.312Z,7.70
2023-05-18T04:36:21.221Z,7.84
2023-05-18T04:38:50.823Z,7.61
2023-05-18T04:41:20.465Z,7.97
2023-05-18T04:43:50.174Z,7.78
2023-05-18T04:46:19.835Z,7.83
2023-05-18T04:48:50.117Z,8.01
2023-05-18T04:51:21.767Z,8.10
2023-05-18T04:53:50.342Z,8.18
2023-05-18T04:56:18.735Z,8.34
2023-05-18T04:58:48.140Z,8.17
2023-05-18T05:01:16.985Z,8.53
2023-05-18T05:03:46.597Z,8.36
2023-05-18T05:06:15.907Z,8.45
2023-05-18T05:08:43.971Z,8.59
2023-05-18T05:11:12.509Z,8.70
2023-05-18T05:13:40.330Z,8.37
2023-05-18T05:16:08.365Z,8.75
2023-05-18T05:18:36.226Z,8.77
2023-05-18T05:21:06.424Z,8.72
2023-05-18T05:23:34.253Z,8.96
2023-05-18T05:26:02.177Z,8.89
2023-05-18T05:28:30.583Z,8.64
2023-05-18T05:30:58.426Z,9.31
2023-05-18T05:33:26.717Z,9.36
2023-05-18T05:35:55.188Z,9.31
2023-05-18T05:38:24.376Z,9.67
2023-05-18T05:40:52.765Z,9.80
2023-05-18T05:43:21.279Z,10.19
2023-05-18T05:45:49.621Z,9.24
2023-05-18T05:48:19.072Z,9.09
2023-05-18T05:50:47.275Z,9.47
2023-05-18T05:53:17.855Z,9.11
2023-05-18T05:55:47.599Z,9.80
2023-05-18T05:58:17.649Z,9.56
2023-05-18T06:00:52.404Z,9.23
2023-05-18T06:03:20.818Z,9.38
2023-05-18T06:05:50.993Z,9.88
2023-05-18T06:08:21.120Z,10.52
2023-05-18T06:10:51.019Z,9.75
2023-05-18T06:13:19.449Z,9.79
2023-05-18T06:15:50.895Z,10.09
2023-05-18T06:18:18.878Z,9.68
2023-05-18T06:20:47.346Z,10.42
2023-05-18T06:23:22.370Z,9.80
2023-05-18T06:26:18.112Z,10.42
2023-05-18T06:28:55.986Z,10.08
2023-05-18T06:31:47.304Z,10.36
2023-05-18T06:34:21.784Z,10.97
2023-05-18T06:36:49.608Z,10.35
2023-05-18T06:39:17.906Z,10.39
2023-05-18T06:41:47.226Z,10.82
2023-05-18T06:44:22.865Z,11.10
2023-05-18T06:47:07.596Z,11.12
2023-05-18T06:49:35.659Z,11.42
2023-05-18T06:52:03.769Z,11.59
2023-05-18T06:54:31.924Z,11.59
2023-05-18T06:57:01.762Z,10.60
2023-05-18T06:59:30.375Z,11.19
2023-05-18T07:01:58.470Z,11.78
2023-05-18T07:04:27.612Z,12.44
2023-05-18T07:06:56.050Z,12.39
2023-05-18T07:09:23.912Z,11.74
2023-05-18T07:11:51.703Z,12.07
2023-05-18T07:14:20.992Z,12.53
2023-05-18T07:16:48.945Z,12.98
2023-05-18T07:19:16.960Z,12.91
2023-05-18T07:21:44.852Z,12.98
2023-05-18T07:24:12.649Z,12.23
2023-05-18T07:26:40.547Z,12.26
2023-05-18T07:29:08.426Z,12.78
2023-05-18T07:31:39.189Z,13.01
2023-05-18T07:34:09.847Z,13.43
2023-05-18T07:36:37.676Z,13.30
2023-05-18T07:39:05.578Z,13.26
2023-05-18T07:41:33.432Z,13.33
2023-05-18T07:44:01.303Z,14.24
2023-05-18T07:46:29.294Z,14.10
2023-05-18T07:49:00.615Z,13.67
2023-05-18T07:51:29.734Z,13.86
2023-05-18T07:53:57.766Z,13.49
2023-05-18T07:56:25.900Z,13.49
2023-05-18T07:58:53.772Z,13.73
2023-05-18T08:01:25.000Z,14.09
2023-05-18T08:03:53.055Z,13.71
2023-05-18T08:06:22.337Z,14.05
2023-05-18T08:08:50.237Z,14.13
2023-05-18T08:11:18.056Z,14.56
2023-05-18T08:13:45.904Z,14.24
2023-05-18T08:16:13.796Z,13.88
2023-05-18T08:18:42.272Z,14.38
2023-05-18T08:21:10.565Z,14.09
2023-05-18T08:23:40.802Z,14.41
2023-05-18T08:26:10.532Z,14.20
2023-05-18T08:28:39.278Z,15.17
2023-05-18T08:31:07.209Z,14.76
2023-05-18T08:33:35.014Z,14.83
2023-05-18T08:36:03.173Z,15.45
2023-05-18T08:38:31.980Z,14.39
2023-05-18T08:41:07.044Z,14.74
2023-05-18T08:43:39.121Z,15.55
2023-05-18T08:46:14.602Z,16.36
2023-05-18T08:48:46.714Z,14.82
2023-05-18T08:51:17.039Z,15.60
2023-05-18T08:53:47.242Z,14.96
2023-05-18T08:56:17.812Z,14.97
2023-05-18T08:58:49.017Z,15.22
2023-05-18T09:01:17.842Z,14.62
2023-05-18T09:03:49.224Z,15.68
2023-05-18T09:06:17.330Z,15.62
2023-05-18T09:08:47.167Z,16.30
2023-05-18T09:11:18.389Z,15.85
2023-05-18T09:13:46.434Z,15.48
2023-05-18T09:16:14.479Z,15.73
2023-05-18T09:18:42.589Z,16.34
2023-05-18T09:21:10.813Z,16.04
2023-05-18T09:23:39.616Z,15.31
2023-05-18T09:28:41.002Z,16.22
2023-05-18T09:31:12.635Z,16.77
2023-05-18T09:33:41.823Z,16.11
2023-05-18T09:36:11.026Z,17.37
2023-05-18T09:38:40.602Z,17.68
2023-05-18T09:41:12.571Z,16.80
2023-05-18T09:43:43.969Z,16.83
2023-05-18T09:46:13.540Z,17.29
2023-05-18T09:48:44.525Z,17.08
2023-05-18T09:51:13.732Z,18.20
2023-05-18T09:53:41.689Z,16.33
2023-05-18T09:56:12.111Z,16.14
2023-05-18T09:58:40.747Z,16.11
2023-05-18T10:01:10.100Z,16.70
2023-05-18T10:03:39.340Z,17.12
2023-05-18T10:06:09.289Z,17.86
2023-05-18T10:08:38.424Z,17.43
2023-05-18T10:11:06.977Z,17.31
2023-05-18T10:13:35.816Z,18.05
2023-05-18T10:16:05.979Z,17.85
2023-05-18T10:18:37.266Z,17.93
2023-05-18T10:21:08.121Z,16.50
2023-05-18T10:23:37.727Z,16.86
2023-05-18T10:26:07.389Z,17.79
2023-05-18T10:28:42.371Z,17.56
2023-05-18T10:31:11.007Z,18.17
2023-05-18T10:33:40.470Z,18.27
2023-05-18T10:36:10.222Z,18.71
2023-05-18T10:38:40.542Z,18.48
2023-05-18T10:41:09.179Z,17.39
2023-05-18T10:43:37.909Z,17.73
2023-05-18T10:46:08.538Z,17.84
2023-05-18T10:48:41.317Z,17.77
2023-05-18T10:51:09.900Z,18.49
2023-05-18T10:53:37.876Z,18.50
2023-05-18T10:56:07.874Z,20.14
2023-05-18T10:58:38.667Z,19.58
2023-05-18T11:01:09.621Z,20.95
2023-05-18T11:03:40.260Z,20.23
2023-05-18T11:06:11.726Z,20.33
2023-05-18T11:08:49.486Z,21.68
2023-05-18T11:11:19.497Z,21.19
2023-05-18T11:13:51.560Z,21.02
2023-05-18T11:16:20.736Z,22.49
2023-05-18T11:18:51.039Z,23.13
2023-05-18T11:21:35.433Z,24.20
2023-05-18T11:24:21.749Z,23.58
2023-05-18T11:26:51.367Z,23.11
2023-05-18T11:29:21.301Z,24.96
2023-05-18T11:31:51.239Z,23.95
2023-05-18T11:34:44.664Z,23.41
2023-05-18T11:37:15.547Z,24.79
2023-05-18T11:40:00.103Z,26.19
2023-05-18T11:42:34.886Z,24.10
2023-05-18T11:45:07.707Z,25.49
2023-05-18T11:47:36.537Z,24.27
2023-05-18T11:50:07.875Z,25.14
2023-05-18T11:52:47.907Z,24.79
2023-05-18T11:55:17.605Z,24.33
2023-05-18T11:57:46.560Z,26.23
2023-05-18T12:00:16.121Z,25.60
2023-05-18T12:02:46.403Z,26.55
2023-05-18T12:05:15.350Z,24.04
2023-05-18T12:07:45.006Z,26.05
2023-05-18T12:10:15.003Z,26.09
2023-05-18T12:12:43.369Z,26.18
2023-05-18T12:15:16.464Z,25.92
2023-05-18T12:17:47.162Z,26.03
2023-05-18T12:20:16.636Z,23.40
2023-05-18T12:22:47.065Z,25.25
2023-05-18T12:25:14.954Z,24.40
2023-05-18T12:27:44.468Z,24.75
2023-05-18T12:30:13.933Z,26.04
2023-05-18T12:32:46.227Z,26.58
2023-05-18T12:35:14.300Z,24.91
2023-05-18T12:37:47.989Z,26.71
2023-05-18T12:40:19.067Z,26.22
2023-05-18T12:42:54.558Z,27.14
2023-05-18T12:45:24.516Z,27.04
2023-05-18T12:47:54.520Z,27.26
2023-05-18T12:50:23.587Z,28.14
2023-05-18T12:52:53.015Z,28.67
2023-05-18T12:55:22.877Z,28.92
2023-05-18T12:58:02.022Z,28.92
2023-05-18T13:00:33.751Z,28.05
2023-05-18T13:03:14.653Z,28.11
2023-05-18T13:05:45.232Z,28.19
2023-05-18T13:08:18.078Z,28.61
2023-05-18T13:10:48.041Z,29.87
2023-05-18T13:13:21.071Z,29.54
2023-05-18T13:15:48.962Z,29.53
2023-05-18T13:18:16.967Z,28.56
2023-05-18T13:20:48.465Z,28.03
2023-05-18T13:23:20.047Z,27.96
2023-05-18T13:25:48.621Z,29.57
2023-05-18T13:28:18.346Z,29.32
2023-05-18T13:30:48.639Z,29.55
2023-05-18T13:33:17.950Z,30.08
2023-05-18T13:35:46.929Z,29.82
2023-05-18T13:38:16.861Z,27.95
2023-05-18T13:40:45.697Z,30.10
2023-05-18T13:43:14.129Z,29.58
2023-05-18T13:45:42.990Z,30.99
2023-05-18T13:48:11.369Z,30.66
2023-05-18T13:50:39.933Z,30.60
2023-05-18T13:53:07.950Z,31.56
2023-05-18T13:55:37.189Z,29.25
2023-05-18T13:58:05.312Z,29.92
2023-05-18T14:00:33.994Z,30.80
2023-05-18T14:03:02.678Z,30.89
2023-05-18T14:05:30.696Z,30.82
2023-05-18T14:07:58.502Z,31.19
2023-05-18T14:10:26.773Z,31.25
2023-05-18T14:12:56.274Z,31.44
2023-05-18T14:15:24.379Z,31.59
2023-05-18T14:17:53.055Z,31.31
2023-05-18T14:20:20.960Z,31.39
2023-05-18T14:22:49.050Z,32.66
2023-05-18T14:25:17.061Z,32.83
2023-05-18T14:27:44.928Z,32.34
2023-05-18T14:30:14.520Z,31.77
2023-05-18T14:32:42.377Z,32.79
2023-05-18T14:35:10.579Z,32.80
2023-05-18T14:37:38.405Z,32.34
2023-05-18T14:40:07.458Z,32.70
2023-05-18T14:42:36.458Z,32.02
2023-05-18T14:45:05.066Z,33.00
2023-05-18T14:47:34.372Z,33.68
2023-05-18T14:50:02.183Z,32.32
2023-05-18T14:52:30.058Z,33.12
2023-05-18T14:54:57.870Z,30.80
2023-05-18T14:57:27.001Z,31.54
2023-05-18T14:59:54.929Z,30.16
2023-05-18T15:02:22.816Z,30.12
2023-05-18T15:04:51.994Z,31.56
2023-05-18T15:07:19.861Z,31.03
2023-05-18T15:09:47.641Z,32.43
2023-05-18T15:12:17.041Z,31.30
2023-05-18T15:14:44.774Z,32.58
2023-05-18T15:17:13.546Z,33.07
2023-05-18T15:19:41.384Z,32.80
2023-05-18T15:22:10.696Z,32.50
2023-05-18T15:24:38.467Z,32.81
2023-05-18T15:27:06.791Z,33.78
2023-05-18T15:29:34.768Z,30.98
2023-05-18T15:32:02.646Z,31.30
2023-05-18T15:34:33.296Z,31.15
2023-05-18T15:37:01.396Z,31.89
2023-05-18T15:39:31.408Z,32.42
2023-05-18T15:41:59.189Z,32.99
2023-05-18T15:44:29.384Z,32.23
2023-05-18T15:46:57.601Z,31.83
2023-05-18T15:49:26.289Z,31.99
2023-05-18T15:51:54.040Z,33.12
2023-05-18T15:54:21.851Z,33.00
2023-05-18T15:56:51.117Z,31.16
2023-05-18T15:59:18.930Z,31.59
2023-05-18T16:01:46.959Z,32.46
2023-05-18T16:04:14.908Z,32.72
2023-05-18T16:06:42.710Z,32.34
2023-05-18T16:09:10.652Z,31.83
2023-05-18T16:11:38.659Z,31.49
2023-05-18T16:14:07.756Z,29.66
2023-05-18T16:16:35.637Z,32.61
2023-05-18T16:19:05.062Z,30.48
2023-05-18T16:21:32.974Z,31.56
2023-05-18T16:24:00.918Z,32.16
2023-05-18T16:26:28.806Z,30.39
2023-05-18T16:28:56.602Z,31.28
2023-05-18T16:31:25.869Z,31.17
2023-05-18T16:33:53.773Z,31.71
2023-05-18T16:36:21.592Z,31.73
2023-05-18T16:38:49.371Z,30.44
2023-05-18T16:41:17.563Z,30.83
2023-05-18T16:43:45.717Z,30.30
2023-05-18T16:46:13.642Z,31.16
2023-05-18T16:48:42.835Z,30.97
2023-05-18T16:51:10.656Z,31.29
2023-05-18T16:53:38.819Z,30.73
2023-05-18T16:56:07.160Z,31.08
2023-05-18T16:58:34.951Z,30.52
2023-05-18T17:01:03.103Z,29.78
2023-05-18T17:03:34.437Z,30.40
2023-05-18T17:06:03.798Z,30.62
2023-05-18T17:08:31.902Z,30.53
2023-05-18T17:10:59.717Z,30.41
2023-05-18T17:13:27.554Z,28.96
2023-05-18T17:15:55.391Z,27.38
2023-05-18T17:18:23.259Z,28.79
2023-05-18T17:20:51.053Z,29.00
2023-05-18T17:23:20.180Z,28.64
2023-05-18T17:25:48.564Z,28.72
2023-05-18T17:28:18.853Z,28.56
2023-05-18T17:30:46.694Z,28.20
2023-05-18T17:33:14.636Z,27.33
2023-05-18T17:35:42.477Z,25.71
2023-05-18T17:38:10.248Z,27.90
2023-05-18T17:40:39.432Z,28.15
2023-05-18T17:43:07.200Z,27.06
2023-05-18T17:45:35.039Z,24.92
2023-05-18T17:48:02.908Z,27.05
2023-05-18T17:50:30.863Z,27.33
2023-05-18T17:52:58.869Z,25.70
2023-05-18T17:55:26.652Z,24.73
2023-05-18T17:57:56.015Z,23.44
2023-05-18T18:00:23.925Z,22.23
2023-05-18T18:02:51.753Z,21.85
2023-05-18T18:05:19.626Z,21.03
2023-05-18T18:07:47.373Z,21.21
2023-05-18T18:10:15.160Z,20.56
2023-05-18T18:12:43.869Z,19.98
2023-05-18T18:15:14.188Z,19.71
2023-05-18T18:17:42.042Z,19.98
2023-05-18T18:20:10.676Z,18.45
2023-05-18T18:22:38.520Z,18.68
2023-05-18T18:25:06.920Z,18.99
2023-05-18T18:27:34.717Z,17.99
2023-05-18T18:30:02.685Z,18.35
2023-05-18T18:32:32.024Z,17.86
2023-05-18T18:34:59.979Z,17.64
2023-05-18T18:37:28.366Z,17.57
2023-05-18T18:39:56.794Z,17.18
2023-05-18T18:42:24.853Z,17.07
2023-05-18T18:44:56.723Z,17.22
2023-05-18T18:47:24.786Z,17.52
2023-05-18T18:49:53.975Z,17.39
2023-05-18T18:52:21.834Z,17.03
2023-05-18T18:54:49.642Z,16.72
2023-05-18T18:57:17.479Z,17.10
2023-05-18T18:59:45.284Z,16.77
2023-05-18T19:02:13.304Z,16.76
2023-05-18T19:04:41.229Z,16.81
2023-05-18T19:07:10.431Z,16.10
2023-05-18T19:09:38.244Z,16.11
2023-05-18T19:12:07.052Z,15.94
2023-05-18T19:14:34.996Z,16.19
2023-05-18T19:17:03.078Z,15.68
2023-05-18T19:19:32.559Z,15.79
2023-05-18T19:22:00.569Z,15.56
2023-05-18T19:24:30.382Z,15.59
2023-05-18T19:27:02.059Z,15.80
2023-05-18T19:29:29.876Z,15.73
2023-05-18T19:31:58.218Z,15.41
2023-05-18T19:34:26.058Z,15.31
2023-05-18T19:36:54.544Z,15.07
2023-05-18T19:39:22.381Z,14.94
2023-05-18T19:41:51.569Z,15.29
2023-05-18T19:44:19.382Z,15.18
2023-05-18T19:46:47.331Z,14.99
2023-05-18T19:49:15.088Z,15.26
2023-05-18T19:51:42.908Z,14.96
2023-05-18T19:54:10.817Z,14.64
2023-05-18T19:56:38.762Z,14.43
2023-05-18T19:59:12.055Z,14.61
2023-05-18T20:01:40.418Z,15.10
2023-05-18T20:04:08.358Z,15.03
2023-05-18T20:06:36.860Z,14.60
2023-05-18T20:09:04.782Z,14.97
2023-05-18T20:11:32.670Z,14.57
2023-05-18T20:14:01.319Z,14.74
2023-05-18T20:16:33.876Z,14.50
2023-05-18T20:19:04.905Z,14.48
2023-05-18T20:21:32.881Z,14.46
2023-05-18T20:24:01.067Z,14.33
2023-05-18T20:26:31.350Z,14.48
2023-05-18T20:29:00.044Z,14.28
2023-05-18T20:31:27.900Z,14.21
2023-05-18T20:33:57.847Z,14.16
2023-05-18T20:36:26.614Z,13.97
2023-05-18T20:38:54.621Z,13.77
2023-05-18T20:41:23.212Z,13.90
2023-05-18T20:43:51.290Z,14.46
2023-05-18T20:46:23.855Z,14.02
2023-05-18T20:48:54.959Z,13.82
2023-05-18T20:51:24.749Z,14.11
2023-05-18T20:53:52.959Z,13.60
2023-05-18T20:56:21.842Z,13.79
2023-05-18T20:58:50.478Z,13.91
2023-05-18T21:01:18.686Z,13.92
2023-05-18T21:03:47.766Z,13.76
2023-05-18T21:06:15.864Z,13.63
2023-05-18T21:08:45.662Z,13.81
2023-05-18T21:11:13.557Z,13.55
2023-05-18T21:13:41.348Z,13.31
2023-05-18T21:16:09.615Z,13.42
2023-05-18T21:18:38.226Z,13.51
2023-05-18T21:21:06.313Z,13.53
2023-05-18T21:23:34.232Z,13.36
2023-05-18T21:26:03.429Z,13.30
2023-05-18T21:28:31.228Z,13.14
2023-05-18T21:30:59.401Z,13.22
2023-05-18T21:33:27.268Z,13.06
2023-05-18T21:35:55.167Z,12.60
2023-05-18T21:38:23.373Z,12.68
2023-05-18T21:40:51.227Z,12.75
2023-05-18T21:43:20.391Z,12.65
2023-05-18T21:45:48.347Z,12.62
2023-05-18T21:48:16.151Z,12.32
2023-05-18T21:50:43.982Z,12.21
2023-05-18T21:53:11.776Z,12.21
2023-05-18T21:55:39.697Z,12.28
2023-05-18T21:58:07.431Z,12.34
2023-05-18T22:00:38.026Z,12.40
2023-05-18T22:03:05.967Z,12.68
2023-05-18T22:05:33.739Z,12.58
2023-05-18T22:08:01.579Z,12.46
2023-05-18T22:10:31.106Z,12.20
2023-05-18T22:12:59.228Z,12.25
2023-05-18T22:15:27.114Z,12.11
2023-05-18T22:17:56.852Z,12.15
2023-05-18T22:20:24.658Z,12.06
2023-05-18T22:22:52.424Z,11.96
2023-05-18T22:25:20.242Z,11.71
2023-05-18T22:27:48.144Z,11.62
2023-05-18T22:30:17.417Z,11.97
2023-05-18T22:32:47.230Z,11.43
2023-05-18T22:35:16.677Z,11.49
2023-05-18T22:37:44.494Z,11.72
2023-05-18T22:40:13.145Z,11.62
2023-05-18T22:42:41.019Z,11.44
2023-05-18T22:45:11.469Z,11.50
2023-05-18T22:47:39.998Z,11.51
2023-05-18T22:50:09.211Z,11.30
2023-05-18T22:52:38.699Z,11.22
2023-05-18T22:55:12.872Z,11.31
2023-05-18T22:57:41.116Z,10.95
2023-05-18T23:00:10.482Z,10.72
2023-05-18T23:02:38.378Z,10.64
2023-05-18T23:05:06.751Z,10.54
2023-05-18T23:07:36.206Z,10.48
2023-05-18T23:10:06.377Z,10.41
2023-05-18T23:12:34.365Z,10.58
2023-05-18T23:15:03.813Z,11.04
2023-05-18T23:17:32.049Z,10.55
2023-05-18T23:20:02.685Z,10.41
2023-05-18T23:22:30.504Z,10.69
2023-05-18T23:24:58.254Z,10.55
2023-05-18T23:27:27.501Z,10.55
2023-05-18T23:29:55.349Z,10.55
2023-05-18T23:32:23.727Z,10.40
2023-05-18T23:34:52.899Z,10.35
2023-05-18T23:37:24.678Z,10.51
2023-05-18T23:39:53.571Z,12.38
2023-05-18T23:42:22.094Z,12.78
2023-05-18T23:44:51.910Z,12.99
2023-05-18T23:47:20.139Z,12.47
2023-05-18T23:49:48.338Z,12.47
2023-05-18T23:52:20.877Z,10.75
2023-05-18T23:54:52.720Z,10.58
2023-05-18T23:57:21.024Z,10.26
2023-05-18T23:59:49.792Z,10.80
